DK-0037 weather

Gilleleje Airstrip
Gilleleje, Zealand, Denmark

Public forecast

Using degrees Celsius for public forecast. Weather courtesy of forecast.io.

METAR (pilot weather report)

Closest report is Ängelholm-Helsingborg Airport, 20.9 nm (38.7 km) ENE. Retrieved 2019/07/15 17:20 UTC (16 minutes ago):

ESTA 151720Z 28007KT 9999 BKN017 OVC035 16/12 Q1010

TAF (pilot weather forecast)

Forecast is more than 12 hours old.

Closest forecast is Ljungbyhed Airport, 29.8 nm (55.2 km) E. Retrieved 2016/03/01 09:33 UTC (3 years ago):

TAF ESTL 010830Z 0109/0124 14004KT 9999 SCT025